THY3XV BKPR-LTFM
Flight info
| Callsign | THY3XV |
|---|---|
| Flight time | N/A |
| Altitude | 37000 |
| Route | SARAX1D SARAX DCT RUGAS UN128 PEREN UN644 DIGTI T162 DRAMO |
| Aircraft | B738/M-SDE2E3FGHIRWXY/LB1 |
Departure
| Time | N/A |
|---|---|
| Airport | Priština Adem Jashari International Airport (BKPR) |
Arrival
| Time | 2026-05-01 13:26 |
|---|---|
| Airport | İstanbul Airport (LTFM) |
| Time | Latitude | Longitude | Altitude | Speed | Heading |
|---|---|---|---|---|---|
| 2026-05-01 12:39 | 41.26465 | 22.84855 | 35186 ft | 484 kts | 152° |
| 2026-05-01 12:39 | 41.23607 | 22.87254 | 35194 ft | 485 kts | 152° |
| 2026-05-01 12:40 | 41.17922 | 22.92128 | 35199 ft | 487 kts | 150° |
| 2026-05-01 12:40 | 41.12759 | 22.97958 | 35193 ft | 499 kts | 124° |
| 2026-05-01 12:41 | 41.11269 | 23.02065 | 35204 ft | 503 kts | 109° |
| 2026-05-01 12:41 | 41.10516 | 23.06592 | 35188 ft | 505 kts | 94° |
| 2026-05-01 12:41 | 41.10582 | 23.15907 | 35192 ft | 506 kts | 87° |
| 2026-05-01 12:42 | 41.10876 | 23.25253 | 35185 ft | 508 kts | 87° |
| 2026-05-01 12:42 | 41.11114 | 23.34621 | 35195 ft | 509 kts | 88° |
| 2026-05-01 12:43 | 41.11290 | 23.44036 | 35192 ft | 510 kts | 88° |
| 2026-05-01 12:43 | 41.11437 | 23.53391 | 35198 ft | 510 kts | 88° |
| 2026-05-01 12:44 | 41.11577 | 23.62819 | 35200 ft | 511 kts | 88° |
| 2026-05-01 12:45 | 41.11844 | 23.81664 | 35192 ft | 509 kts | 88° |
| 2026-05-01 12:45 | 41.11967 | 23.90997 | 35192 ft | 508 kts | 88° |
| 2026-05-01 12:46 | 41.12081 | 24.00362 | 35195 ft | 507 kts | 88° |
| 2026-05-01 12:46 | 41.12188 | 24.09698 | 35205 ft | 506 kts | 89° |
| 2026-05-01 12:47 | 41.12287 | 24.19031 | 35199 ft | 505 kts | 89° |
| 2026-05-01 12:47 | 41.12378 | 24.28349 | 35199 ft | 505 kts | 89° |
| 2026-05-01 12:48 | 41.12462 | 24.37670 | 35204 ft | 505 kts | 89° |
| 2026-05-01 12:48 | 41.12538 | 24.46940 | 35206 ft | 506 kts | 89° |
| 2026-05-01 12:49 | 41.12607 | 24.56283 | 35228 ft | 507 kts | 89° |
| 2026-05-01 12:49 | 41.12669 | 24.65656 | 35214 ft | 507 kts | 89° |
| 2026-05-01 12:50 | 41.12723 | 24.75010 | 35213 ft | 507 kts | 89° |
| 2026-05-01 12:50 | 41.12769 | 24.84300 | 35204 ft | 506 kts | 89° |
| 2026-05-01 12:51 | 41.12809 | 24.93681 | 35221 ft | 505 kts | 89° |
| 2026-05-01 12:52 | 41.12855 | 25.07589 | 35216 ft | 505 kts | 89° |
| 2026-05-01 12:52 | 41.12882 | 25.21563 | 35220 ft | 504 kts | 89° |
| 2026-05-01 12:53 | 41.12892 | 25.35536 | 35221 ft | 505 kts | 90° |
| 2026-05-01 12:54 | 41.12889 | 25.44798 | 35237 ft | 505 kts | 90° |
| 2026-05-01 12:54 | 41.12871 | 25.58784 | 35223 ft | 506 kts | 90° |
| 2026-05-01 12:55 | 41.12836 | 25.72776 | 35222 ft | 505 kts | 90° |
| 2026-05-01 12:56 | 41.12803 | 25.82102 | 35225 ft | 505 kts | 90° |
| 2026-05-01 12:56 | 41.12763 | 25.91428 | 35042 ft | 508 kts | 90° |
| 2026-05-01 12:56 | 41.12740 | 25.96101 | 34790 ft | 505 kts | 90° |
| 2026-05-01 12:57 | 41.12715 | 26.00772 | 34219 ft | 506 kts | 90° |
| 2026-05-01 12:57 | 41.12660 | 26.10093 | 32713 ft | 504 kts | 90° |
| 2026-05-01 12:57 | 41.12629 | 26.14743 | 31935 ft | 503 kts | 90° |
| 2026-05-01 12:58 | 41.12598 | 26.19388 | 31144 ft | 502 kts | 91° |
| 2026-05-01 12:58 | 41.12576 | 26.22459 | 30612 ft | 502 kts | 91° |
| 2026-05-01 12:58 | 41.12537 | 26.27062 | 29920 ft | 494 kts | 92° |
| 2026-05-01 12:59 | 41.11376 | 26.36026 | 27831 ft | 491 kts | 110° |
| 2026-05-01 12:59 | 41.10101 | 26.40215 | 26859 ft | 490 kts | 115° |
| 2026-05-01 12:59 | 41.07416 | 26.48371 | 25745 ft | 471 kts | 114° |
| 2026-05-01 13:00 | 41.04967 | 26.56103 | 25457 ft | 452 kts | 114° |
| 2026-05-01 13:00 | 41.03809 | 26.59927 | 25305 ft | 444 kts | 110° |
| 2026-05-01 13:01 | 41.02761 | 26.68221 | 25232 ft | 470 kts | 92° |
| 2026-05-01 13:01 | 41.02669 | 26.72581 | 25224 ft | 479 kts | 91° |
| 2026-05-01 13:01 | 41.02516 | 26.81541 | 25215 ft | 489 kts | 91° |
| 2026-05-01 13:02 | 41.02430 | 26.85968 | 24476 ft | 487 kts | 92° |
| 2026-05-01 13:07 | 40.99263 | 27.68505 | 11437 ft | 355 kts | 98° |
| 2026-05-01 13:07 | 40.98890 | 27.71642 | 11164 ft | 334 kts | 98° |
| 2026-05-01 13:07 | 40.98545 | 27.74599 | 10919 ft | 317 kts | 98° |
| 2026-05-01 13:08 | 40.98222 | 27.77430 | 10651 ft | 306 kts | 98° |
| 2026-05-01 13:08 | 40.97911 | 27.80188 | 10401 ft | 300 kts | 98° |
| 2026-05-01 13:08 | 40.97607 | 27.82907 | 10170 ft | 296 kts | 98° |
| 2026-05-01 13:08 | 40.97307 | 27.85600 | 9901 ft | 295 kts | 97° |
| 2026-05-01 13:09 | 40.97010 | 27.88275 | 9616 ft | 291 kts | 97° |
| 2026-05-01 13:09 | 40.96719 | 27.90900 | 9382 ft | 286 kts | 97° |
| 2026-05-01 13:09 | 40.96433 | 27.93477 | 9103 ft | 281 kts | 97° |
| 2026-05-01 13:09 | 40.96150 | 27.96019 | 8836 ft | 277 kts | 97° |
| 2026-05-01 13:10 | 40.95874 | 27.98497 | 8577 ft | 274 kts | 96° |
| 2026-05-01 13:10 | 40.95596 | 28.00983 | 8316 ft | 272 kts | 96° |
| 2026-05-01 13:10 | 40.95319 | 28.03450 | 8054 ft | 270 kts | 95° |
| 2026-05-01 13:10 | 40.95045 | 28.05892 | 7795 ft | 267 kts | 96° |
| 2026-05-01 13:11 | 40.94773 | 28.08314 | 7561 ft | 265 kts | 96° |
| 2026-05-01 13:11 | 40.94503 | 28.10718 | 7310 ft | 263 kts | 95° |
| 2026-05-01 13:11 | 40.94235 | 28.13106 | 7047 ft | 262 kts | 95° |
| 2026-05-01 13:11 | 40.93966 | 28.15484 | 6802 ft | 260 kts | 95° |
| 2026-05-01 13:12 | 40.93700 | 28.17841 | 6539 ft | 258 kts | 95° |
| 2026-05-01 13:12 | 40.93435 | 28.20180 | 6274 ft | 255 kts | 94° |
| 2026-05-01 13:12 | 40.93173 | 28.22489 | 6008 ft | 253 kts | 94° |
| 2026-05-01 13:12 | 40.92912 | 28.24782 | 5747 ft | 251 kts | 94° |
| 2026-05-01 13:13 | 40.92653 | 28.27053 | 5487 ft | 249 kts | 94° |
| 2026-05-01 13:13 | 40.92394 | 28.29315 | 5226 ft | 247 kts | 94° |
| 2026-05-01 13:13 | 40.92139 | 28.31544 | 5041 ft | 242 kts | 94° |
| 2026-05-01 13:13 | 40.91893 | 28.33685 | 4988 ft | 236 kts | 93° |
| 2026-05-01 13:14 | 40.91648 | 28.35819 | 4990 ft | 233 kts | 93° |
| 2026-05-01 13:14 | 40.91405 | 28.37942 | 4999 ft | 235 kts | 94° |
| 2026-05-01 13:14 | 40.91159 | 28.40094 | 4998 ft | 238 kts | 93° |
| 2026-05-01 13:14 | 40.90910 | 28.42258 | 4993 ft | 238 kts | 93° |
| 2026-05-01 13:15 | 40.90661 | 28.44421 | 4984 ft | 237 kts | 93° |
| 2026-05-01 13:15 | 40.90415 | 28.46541 | 4974 ft | 229 kts | 94° |
| 2026-05-01 13:15 | 40.90178 | 28.48576 | 4973 ft | 219 kts | 93° |
| 2026-05-01 13:15 | 40.89949 | 28.50547 | 4979 ft | 216 kts | 92° |
| 2026-05-01 13:16 | 40.89723 | 28.52500 | 4983 ft | 214 kts | 93° |
| 2026-05-01 13:16 | 40.89499 | 28.54425 | 4992 ft | 214 kts | 93° |
| 2026-05-01 13:16 | 40.89273 | 28.56371 | 4999 ft | 214 kts | 93° |
| 2026-05-01 13:17 | 40.89955 | 28.61942 | 4989 ft | 204 kts | 67° |
| 2026-05-01 13:17 | 40.90403 | 28.63692 | 4984 ft | 198 kts | 67° |
| 2026-05-01 13:18 | 40.91275 | 28.67080 | 5002 ft | 194 kts | 67° |
| 2026-05-01 13:18 | 40.91805 | 28.68725 | 4995 ft | 195 kts | 50° |
| 2026-05-01 13:18 | 40.92869 | 28.69841 | 5011 ft | 199 kts | 31° |
| 2026-05-01 13:18 | 40.94072 | 28.70749 | 5011 ft | 199 kts | 30° |
| 2026-05-01 13:19 | 40.95268 | 28.71624 | 5017 ft | 198 kts | 30° |
| 2026-05-01 13:19 | 40.96470 | 28.72503 | 5027 ft | 198 kts | 30° |
| 2026-05-01 13:19 | 40.99062 | 28.73382 | 5018 ft | 196 kts | 360° |
| 2026-05-01 13:20 | 41.00405 | 28.73331 | 5003 ft | 191 kts | 4° |
| 2026-05-01 13:20 | 41.01736 | 28.73324 | 4996 ft | 193 kts | 4° |
| 2026-05-01 13:20 | 41.03097 | 28.73307 | 4985 ft | 199 kts | 4° |
| 2026-05-01 13:21 | 41.05897 | 28.73249 | 4440 ft | 196 kts | 3° |
| 2026-05-01 13:21 | 41.07230 | 28.73216 | 4176 ft | 187 kts | 4° |
| 2026-05-01 13:21 | 41.08513 | 28.73185 | 3941 ft | 182 kts | 4° |
| 2026-05-01 13:21 | 41.09746 | 28.73156 | 3696 ft | 171 kts | 5° |
| 2026-05-01 13:22 | 41.10897 | 28.73127 | 3463 ft | 161 kts | 6° |
| 2026-05-01 13:22 | 41.12010 | 28.73105 | 3243 ft | 161 kts | 5° |
| 2026-05-01 13:22 | 41.13125 | 28.73080 | 3035 ft | 160 kts | 4° |
| 2026-05-01 13:22 | 41.14219 | 28.73052 | 2819 ft | 153 kts | 4° |
| 2026-05-01 13:23 | 41.15253 | 28.73030 | 2604 ft | 147 kts | 5° |
| 2026-05-01 13:23 | 41.16253 | 28.73006 | 2390 ft | 141 kts | 5° |
| 2026-05-01 13:23 | 41.17218 | 28.72986 | 2238 ft | 139 kts | 5° |
| 2026-05-01 13:23 | 41.18220 | 28.72961 | 2024 ft | 145 kts | 4° |
| 2026-05-01 13:24 | 41.19197 | 28.72938 | 1809 ft | 135 kts | 5° |
| 2026-05-01 13:24 | 41.20082 | 28.72916 | 1658 ft | 122 kts | 5° |
| 2026-05-01 13:24 | 41.20925 | 28.72897 | 1482 ft | 120 kts | 5° |
| 2026-05-01 13:25 | 41.22628 | 28.72854 | 1167 ft | 124 kts | 6° |
| 2026-05-01 13:25 | 41.23486 | 28.72840 | 973 ft | 125 kts | 5° |
| 2026-05-01 13:25 | 41.24363 | 28.72817 | 746 ft | 125 kts | 5° |
| 2026-05-01 13:25 | 41.25216 | 28.72795 | 577 ft | 121 kts | 6° |
| 2026-05-01 13:26 | 41.26066 | 28.72773 | 408 ft | 123 kts | 5° |
| 2026-05-01 13:26 | 41.26911 | 28.72763 | 329 ft | 112 kts | 359° |
| 2026-05-01 13:26 | 41.27567 | 28.72752 | 332 ft | 77 kts | 2° |
| 2026-05-01 13:26 | 41.27981 | 28.72740 | 333 ft | 43 kts | 360° |
| 2026-05-01 13:27 | 41.28223 | 28.72737 | 333 ft | 31 kts | 9° |
| 2026-05-01 13:27 | 41.28352 | 28.72795 | 333 ft | 16 kts | 23° |
| 2026-05-01 13:27 | 41.28474 | 28.72915 | 333 ft | 0 kts | 84° |
| 2026-05-01 13:28 | 41.28428 | 28.72952 | 332 ft | 9 kts | 173° |
| 2026-05-01 13:28 | 41.28355 | 28.72958 | 331 ft | 11 kts | 180° |
| 2026-05-01 13:29 | 41.28208 | 28.72960 | 330 ft | 10 kts | 178° |
| 2026-05-01 13:29 | 41.28069 | 28.72963 | 332 ft | 10 kts | 180° |
| 2026-05-01 13:30 | 41.27769 | 28.72968 | 333 ft | 13 kts | 178° |
| 2026-05-01 13:31 | 41.27594 | 28.72976 | 331 ft | 12 kts | 181° |
| 2026-05-01 13:31 | 41.27346 | 28.72978 | 328 ft | 12 kts | 179° |
| 2026-05-01 13:32 | 41.27151 | 28.72983 | 333 ft | 14 kts | 178° |
| 2026-05-01 13:33 | 41.26954 | 28.73114 | 333 ft | 12 kts | 88° |
| 2026-05-01 13:33 | 41.26957 | 28.73344 | 332 ft | 15 kts | 89° |
| 2026-05-01 13:34 | 41.26961 | 28.73626 | 333 ft | 15 kts | 88° |
| 2026-05-01 13:34 | 41.26932 | 28.73865 | 329 ft | 13 kts | 160° |
| 2026-05-01 13:35 | 41.26764 | 28.73876 | 329 ft | 10 kts | 178° |
| 2026-05-01 13:35 | 41.26709 | 28.73876 | 332 ft | 5 kts | 194° |
| 2026-05-01 13:35 | 41.26702 | 28.73868 | 332 ft | 1 kts | 224° |
| 2026-05-01 13:36 | 41.26698 | 28.73855 | 330 ft | 2 kts | 262° |
| 2026-05-01 13:36 | 41.26698 | 28.73812 | 331 ft | 6 kts | 270° |
| 2026-05-01 13:36 | 41.26698 | 28.73789 | 331 ft | 0 kts | 269° |